Time;durP1;ratioP1;P1;durP2;ratioP2;P2;SDS_P1;SDS_P2;PMS_P1;PMS_P2;Temp;Humidity;BMP_temperature;BMP_pressure;BME280_temperature;BME280_humidity;BME280_pressure;Samples;Min_cycle;Max_cycle;Signal;HPM_P1;HPM_P2
2021/01/18 00:02:06;;;;;;;88.88;33.83;;;-8.90;45.30;;;;;;5075646;28;20036;-83
2021/01/18 00:04:32;;;;;;;98.50;35.78;;;-8.90;45.30;;;;;;5083290;28;20059;-83
2021/01/18 00:06:58;;;;;;;101.05;36.17;;;-9.00;45.30;;;;;;5099072;28;20028;-84
2021/01/18 00:09:24;;;;;;;88.13;33.25;;;-9.00;45.40;;;;;;5085190;28;20025;-82
2021/01/18 00:11:54;;;;;;;102.97;35.30;;;-9.10;45.40;;;;;;5075277;28;20318;-83
2021/01/18 00:14:20;;;;;;;79.57;30.55;;;-9.10;45.40;;;;;;5074976;28;20028;-83
2021/01/18 00:16:46;;;;;;;108.90;36.58;;;-9.10;45.50;;;;;;5074810;28;20028;-83
2021/01/18 00:19:12;;;;;;;109.38;36.40;;;-9.20;45.40;;;;;;5074742;28;20024;-84
2021/01/18 00:21:46;;;;;;;93.72;35.28;;;-9.20;45.60;;;;;;5056789;28;20111;-82
2021/01/18 00:24:13;;;;;;;78.38;30.48;;;-9.20;45.70;;;;;;5086813;28;20026;-81
2021/01/18 00:26:39;;;;;;;92.65;32.60;;;-9.30;45.60;;;;;;5095105;28;20416;-82
2021/01/18 00:29:05;;;;;;;71.32;28.52;;;-9.20;45.70;;;;;;5094724;28;20035;-83
2021/01/18 00:31:31;;;;;;;79.80;28.23;;;-9.20;45.80;;;;;;5094974;28;20091;-81
2021/01/18 00:33:56;;;;;;;70.43;27.58;;;-9.20;45.70;;;;;;5094958;28;20024;-81
2021/01/18 00:36:23;;;;;;;81.88;28.02;;;-9.20;45.80;;;;;;5094932;28;20077;-82
2021/01/18 00:38:48;;;;;;;80.50;30.83;;;-9.20;45.80;;;;;;5094580;28;20032;-83
2021/01/18 00:41:20;;;;;;;83.70;30.52;;;-9.20;45.90;;;;;;5076477;28;20090;-82
2021/01/18 00:43:46;;;;;;;89.85;33.00;;;-9.20;45.90;;;;;;5098810;28;20055;-83
2021/01/18 00:46:12;;;;;;;91.22;33.35;;;-9.30;45.80;;;;;;5105978;28;20365;-83
2021/01/18 00:48:39;;;;;;;89.97;33.25;;;-9.30;45.90;;;;;;5094469;28;20338;-84
2021/01/18 00:51:04;;;;;;;93.60;34.67;;;-9.30;45.90;;;;;;5094333;28;20545;-82
2021/01/18 00:53:30;;;;;;;77.75;33.92;;;-9.30;45.90;;;;;;5094638;28;20154;-84
2021/01/18 00:55:56;;;;;;;90.35;33.70;;;-9.30;45.90;;;;;;5094189;28;20027;-81
2021/01/18 00:58:21;;;;;;;81.18;30.73;;;-9.20;46.00;;;;;;5093258;28;20067;-82
2021/01/18 01:00:47;;;;;;;81.32;31.52;;;-9.30;45.90;;;;;;5094283;28;20570;-83
2021/01/18 01:03:13;;;;;;;82.72;30.58;;;-9.30;45.90;;;;;;5085325;28;20157;-83
2021/01/18 01:05:39;;;;;;;73.93;29.92;;;-9.30;45.90;;;;;;5074151;28;20107;-83
2021/01/18 01:08:05;;;;;;;82.78;31.58;;;-9.40;45.90;;;;;;5074057;28;20331;-83
2021/01/18 01:10:33;;;;;;;74.15;28.77;;;-9.40;45.90;;;;;;5073995;28;20021;-84
2021/01/18 01:13:04;;;;;;;84.00;30.88;;;-9.40;45.90;;;;;;5072678;28;20373;-84
2021/01/18 01:15:31;;;;;;;79.32;29.45;;;-9.40;46.00;;;;;;5056412;28;20067;-84
2021/01/18 01:17:57;;;;;;;75.82;32.13;;;-9.50;46.00;;;;;;5073735;28;20029;-83
2021/01/18 01:20:23;;;;;;;82.18;30.55;;;-9.50;45.90;;;;;;5056222;28;20020;-81
2021/01/18 01:22:50;;;;;;;71.93;28.38;;;-9.50;46.00;;;;;;5055754;28;20020;-84
2021/01/18 01:25:18;;;;;;;84.70;30.67;;;-9.50;46.10;;;;;;5073538;28;20465;-83
2021/01/18 01:27:45;;;;;;;72.28;29.38;;;-9.60;46.00;;;;;;5073401;28;20040;-83
2021/01/18 01:30:17;;;;;;;85.05;29.88;;;-9.60;46.10;;;;;;5073564;28;20092;-83
2021/01/18 01:32:47;;;;;;;88.20;32.80;;;-9.60;46.10;;;;;;5073236;28;20051;-84
2021/01/18 01:35:14;;;;;;;75.65;29.48;;;-9.60;46.20;;;;;;5073578;28;20081;-83
2021/01/18 01:37:40;;;;;;;80.80;28.42;;;-9.60;46.20;;;;;;5075986;28;20028;-83
2021/01/18 01:40:08;;;;;;;81.10;32.45;;;-9.60;46.20;;;;;;5078140;28;20028;-82
2021/01/18 01:42:34;;;;;;;85.60;31.45;;;-9.60;46.20;;;;;;5073724;28;20043;-80
2021/01/18 01:45:02;;;;;;;97.28;33.78;;;-9.70;46.10;;;;;;5073579;28;20024;-81
2021/01/18 01:47:58;;;;;;;83.43;34.72;;;-9.70;46.20;;;;;;5073888;28;20040;-83
2021/01/18 01:50:33;;;;;;;96.85;35.08;;;-9.70;46.20;;;;;;5053253;28;20040;-84
2021/01/18 01:53:05;;;;;;;105.28;36.88;;;-9.80;46.10;;;;;;5075358;28;20384;-83
2021/01/18 01:55:32;;;;;;;97.63;36.03;;;-9.80;46.20;;;;;;5082156;28;20025;-83
2021/01/18 01:58:00;;;;;;;111.22;37.75;;;-9.80;46.20;;;;;;5060912;28;20056;-84
2021/01/18 02:00:37;;;;;;;101.40;37.58;;;-9.80;46.20;;;;;;5055507;28;20021;-84
2021/01/18 02:03:17;;;;;;;113.65;39.53;;;-9.80;46.30;;;;;;5073114;28;20443;-82
2021/01/18 02:05:49;;;;;;;102.97;38.85;;;-9.80;46.30;;;;;;5073123;28;20039;-80
2021/01/18 02:08:14;;;;;;;102.85;38.00;;;-9.80;46.30;;;;;;5073421;28;20064;-80
2021/01/18 02:10:42;;;;;;;102.68;36.95;;;-9.80;46.40;;;;;;5073392;28;20055;-80
2021/01/18 02:13:37;;;;;;;100.13;37.03;;;-9.80;46.40;;;;;;5073197;28;20056;-80
2021/01/18 02:16:29;;;;;;;94.70;35.92;;;-9.80;46.50;;;;;;5073370;28;20071;-80
2021/01/18 02:19:07;;;;;;;108.70;36.33;;;-9.80;46.50;;;;;;5072887;28;20040;-81
2021/01/18 02:22:11;;;;;;;147.60;52.40;;;-9.80;46.40;;;;;;5073205;28;20099;-81
2021/01/18 02:25:07;;;;;;;153.15;48.60;;;-9.80;46.40;;;;;;5072502;28;20040;-81
2021/01/18 02:27:51;;;;;;;135.38;42.67;;;-9.80;46.40;;;;;;5073496;28;20442;-81
2021/01/18 02:30:54;;;;;;;124.20;42.83;;;-9.80;46.30;;;;;;5073029;28;20025;-81
2021/01/18 02:33:39;;;;;;;133.18;47.65;;;-9.80;46.40;;;;;;5072869;28;20070;-81
2021/01/18 02:36:22;;;;;;;122.93;40.83;;;-9.80;46.40;;;;;;5073226;28;20115;-83
2021/01/18 02:39:15;;;;;;;103.78;35.67;;;-9.70;46.50;;;;;;5073079;28;20466;-82
2021/01/18 02:41:56;;;;;;;107.00;35.92;;;-9.70;46.50;;;;;;5072944;28;20021;-81
2021/01/18 02:44:25;;;;;;;99.22;35.38;;;-9.60;46.50;;;;;;5074644;28;20028;-81
2021/01/18 02:46:52;;;;;;;96.03;34.85;;;-9.60;46.50;;;;;;5074883;28;20032;-81
2021/01/18 02:49:20;;;;;;;108.22;35.45;;;-9.60;46.50;;;;;;5073444;28;20035;-82
2021/01/18 02:51:55;;;;;;;105.22;37.30;;;-9.50;46.60;;;;;;5076427;28;20116;-82
2021/01/18 02:54:21;;;;;;;107.95;39.00;;;-9.40;46.60;;;;;;5072529;28;20497;-81
2021/01/18 02:56:52;;;;;;;112.03;39.00;;;-9.40;46.50;;;;;;5055188;28;20033;-82
2021/01/18 02:59:19;;;;;;;91.28;32.63;;;-9.40;46.40;;;;;;5073251;28;20393;-82
2021/01/18 03:01:56;;;;;;;110.60;40.60;;;-9.30;46.30;;;;;;5073476;28;20067;-80
2021/01/18 03:04:49;;;;;;;89.57;33.60;;;-9.40;46.20;;;;;;5074268;28;20454;-82
2021/01/18 03:07:31;;;;;;;75.00;28.30;;;-9.40;46.20;;;;;;5073689;28;20024;-82
2021/01/18 03:10:05;;;;;;;79.25;29.55;;;-9.40;46.20;;;;;;5072899;28;20543;-81
2021/01/18 03:13:05;;;;;;;107.57;32.38;;;-9.50;46.30;;;;;;5073475;28;20029;-83
2021/01/18 03:15:39;;;;;;;87.68;29.02;;;-9.50;46.40;;;;;;5036194;28;20024;-82
2021/01/18 03:18:08;;;;;;;112.47;36.70;;;-9.50;46.30;;;;;;5075790;28;20040;-82
2021/01/18 03:20:35;;;;;;;120.60;37.80;;;-9.50;46.20;;;;;;5077196;28;20034;-80
2021/01/18 03:23:07;;;;;;;111.38;38.38;;;-9.60;46.30;;;;;;5078077;28;20033;-81
2021/01/18 03:25:53;;;;;;;114.30;36.72;;;-9.60;46.50;;;;;;5075716;28;20099;-82
2021/01/18 03:28:20;;;;;;;104.55;36.78;;;-9.60;46.60;;;;;;5075704;28;20449;-81
2021/01/18 03:30:46;;;;;;;131.88;40.00;;;-9.60;46.70;;;;;;5075597;28;20017;-82
2021/01/18 03:33:13;;;;;;;66.85;25.98;;;-9.50;46.80;;;;;;5075752;28;20070;-82
2021/01/18 03:35:40;;;;;;;88.25;31.60;;;-9.50;46.70;;;;;;5075312;28;20063;-83
2021/01/18 03:38:06;;;;;;;78.70;27.63;;;-9.50;46.70;;;;;;5075420;28;20028;-83
2021/01/18 03:40:32;;;;;;;86.85;28.45;;;-9.40;46.80;;;;;;5075485;28;20053;-81
2021/01/18 03:43:00;;;;;;;83.80;29.98;;;-9.40;46.70;;;;;;5076287;28;20470;-81
2021/01/18 03:45:28;;;;;;;81.50;30.52;;;-9.40;46.70;;;;;;5057265;28;20466;-81
2021/01/18 03:47:54;;;;;;;87.60;29.00;;;-9.40;46.70;;;;;;5075491;28;20032;-81
2021/01/18 03:50:20;;;;;;;69.60;26.67;;;-9.40;46.80;;;;;;5075362;28;20020;-82
2021/01/18 03:52:47;;;;;;;67.60;25.65;;;-9.30;46.90;;;;;;5075217;28;20028;-83
2021/01/18 03:55:23;;;;;;;63.58;23.73;;;-9.30;46.80;;;;;;5075262;28;20075;-83
2021/01/18 03:57:51;;;;;;;81.30;28.33;;;-9.30;46.80;;;;;;5074860;28;20055;-83
2021/01/18 04:00:20;;;;;;;64.35;23.42;;;-9.30;46.70;;;;;;5075447;28;20032;-82
2021/01/18 04:02:45;;;;;;;68.63;25.70;;;-9.30;46.60;;;;;;5075097;28;20028;-83
2021/01/18 04:05:14;;;;;;;63.40;23.60;;;-9.30;46.70;;;;;;5075073;28;20024;-82
2021/01/18 04:07:41;;;;;;;65.40;23.73;;;-9.30;46.60;;;;;;5075302;28;20380;-81
2021/01/18 04:10:08;;;;;;;76.20;26.27;;;-9.30;46.60;;;;;;5074639;28;20519;-82
2021/01/18 04:12:37;;;;;;;72.25;25.67;;;-9.40;46.60;;;;;;5057275;28;20039;-82
2021/01/18 04:15:03;;;;;;;75.78;28.63;;;-9.40;46.80;;;;;;5074756;28;20056;-81
2021/01/18 04:17:29;;;;;;;73.95;28.02;;;-9.40;46.90;;;;;;5075263;28;20481;-83
2021/01/18 04:19:55;;;;;;;70.32;28.38;;;-9.40;46.90;;;;;;5070194;28;20074;-81
2021/01/18 04:22:20;;;;;;;68.13;27.05;;;-9.40;47.00;;;;;;5043807;28;20032;-81
2021/01/18 04:24:46;;;;;;;81.43;26.92;;;-9.30;47.10;;;;;;5061407;28;20021;-83
2021/01/18 04:27:12;;;;;;;76.28;27.27;;;-9.30;47.00;;;;;;5050430;28;20456;-81
2021/01/18 04:29:39;;;;;;;67.60;26.25;;;-9.20;47.00;;;;;;5064178;28;20091;-82
2021/01/18 04:32:12;;;;;;;70.00;26.55;;;-9.20;47.00;;;;;;5061547;28;20021;-80
2021/01/18 04:34:38;;;;;;;66.88;25.60;;;-9.20;47.00;;;;;;5061693;28;20551;-82
2021/01/18 04:37:03;;;;;;;63.80;22.95;;;-9.20;47.00;;;;;;5064050;28;20046;-81
2021/01/18 04:39:29;;;;;;;50.58;22.70;;;-9.20;47.00;;;;;;5062495;28;20048;-81
2021/01/18 04:41:59;;;;;;;60.30;21.70;;;-9.10;47.00;;;;;;5062427;28;20535;-79
2021/01/18 04:44:26;;;;;;;49.03;19.90;;;-9.10;47.00;;;;;;5062126;28;20044;-82
2021/01/18 04:46:55;;;;;;;55.65;20.88;;;-9.10;47.00;;;;;;5063273;28;20151;-80
2021/01/18 04:49:21;;;;;;;50.47;18.80;;;-9.10;47.00;;;;;;5044062;28;20033;-81
2021/01/18 04:51:58;;;;;;;45.22;17.67;;;-9.20;47.00;;;;;;5062569;28;20017;-80
2021/01/18 04:54:26;;;;;;;44.38;17.63;;;-9.20;47.00;;;;;;5061801;28;20484;-80
2021/01/18 04:57:12;;;;;;;40.13;17.05;;;-9.30;46.90;;;;;;5062566;28;20021;-82
2021/01/18 04:59:48;;;;;;;41.75;16.50;;;-9.30;47.00;;;;;;5063380;28;20061;-83
2021/01/18 05:02:24;;;;;;;40.65;17.05;;;-9.30;47.00;;;;;;5063012;28;20020;-82
2021/01/18 05:04:51;;;;;;;42.72;17.50;;;-9.40;47.10;;;;;;5046125;28;20020;-83
2021/01/18 05:07:37;;;;;;;42.35;18.85;;;-9.40;47.00;;;;;;5064418;28;20471;-81
2021/01/18 05:10:08;;;;;;;53.63;20.05;;;-9.50;47.10;;;;;;5063826;28;20024;-80
2021/01/18 05:12:44;;;;;;;68.78;26.60;;;-9.50;47.20;;;;;;5062978;28;20383;-81
2021/01/18 05:15:12;;;;;;;94.47;35.20;;;-9.50;47.20;;;;;;5064833;28;20029;-79
2021/01/18 05:17:45;;;;;;;123.95;40.08;;;-9.50;47.10;;;;;;5062406;28;20036;-82
2021/01/18 05:20:13;;;;;;;149.77;45.65;;;-9.50;47.20;;;;;;5062062;28;20036;-81
2021/01/18 05:22:50;;;;;;;150.52;44.53;;;-9.50;47.20;;;;;;5061899;28;20024;-82
2021/01/18 05:25:19;;;;;;;146.00;46.30;;;-9.60;47.20;;;;;;5062425;28;20029;-79
2021/01/18 05:28:02;;;;;;;120.70;40.42;;;-9.60;47.20;;;;;;5060940;28;20108;-83
2021/01/18 05:30:29;;;;;;;118.32;38.97;;;-9.60;47.20;;;;;;5061326;28;20029;-83
2021/01/18 05:33:20;;;;;;;177.10;51.15;;;-9.60;47.10;;;;;;5062447;28;20021;-81
2021/01/18 05:35:49;;;;;;;179.57;50.08;;;-9.70;47.20;;;;;;5063324;28;20024;-83
2021/01/18 05:38:15;;;;;;;141.40;42.97;;;-9.70;47.20;;;;;;5071380;28;20040;-83
2021/01/18 05:40:51;;;;;;;106.28;33.33;;;-9.70;47.20;;;;;;5074439;28;20020;-81
2021/01/18 05:43:33;;;;;;;102.30;34.72;;;-9.70;47.40;;;;;;5070860;28;20025;-81
2021/01/18 05:46:04;;;;;;;107.85;34.22;;;-9.70;47.40;;;;;;5074394;28;20024;-84
2021/01/18 05:48:31;;;;;;;145.20;45.15;;;-9.60;47.50;;;;;;5073124;28;20024;-81
2021/01/18 05:50:58;;;;;;;139.82;43.90;;;-9.60;47.50;;;;;;5073190;28;20023;-82
2021/01/18 05:53:34;;;;;;;124.88;40.13;;;-9.50;47.50;;;;;;5056159;28;20462;-82
2021/01/18 05:56:17;;;;;;;104.55;34.20;;;-9.40;47.40;;;;;;5063643;28;20017;-81
2021/01/18 05:58:46;;;;;;;99.47;35.38;;;-9.30;47.40;;;;;;5054969;28;20037;-83
2021/01/18 06:01:12;;;;;;;118.05;40.33;;;-9.20;47.30;;;;;;5052541;28;20440;-83
2021/01/18 06:03:38;;;;;;;117.07;38.15;;;-9.20;47.30;;;;;;5052324;28;20075;-82
2021/01/18 06:06:04;;;;;;;100.80;34.30;;;-9.10;47.20;;;;;;5052790;28;20021;-83
2021/01/18 06:08:30;;;;;;;93.03;33.65;;;-9.10;47.10;;;;;;5052720;28;20033;-84
2021/01/18 06:11:02;;;;;;;92.03;31.88;;;-9.10;47.10;;;;;;5034809;28;20017;-84
2021/01/18 06:13:32;;;;;;;84.88;30.83;;;-9.00;47.20;;;;;;5053843;28;20029;-83
2021/01/18 06:16:05;;;;;;;93.55;33.63;;;-9.00;47.20;;;;;;5054101;28;20021;-83
2021/01/18 06:18:35;;;;;;;59.13;24.08;;;-8.90;47.20;;;;;;5053965;28;20417;-80
2021/01/18 06:21:08;;;;;;;59.95;23.23;;;-8.80;47.20;;;;;;5052798;28;20052;-83
2021/01/18 06:23:34;;;;;;;51.38;21.70;;;-8.80;46.90;;;;;;5052943;28;20032;-83
2021/01/18 06:26:34;;;;;;;52.05;21.83;;;-8.80;47.00;;;;;;5053171;28;20032;-84
2021/01/18 06:29:00;;;;;;;50.25;20.20;;;-8.80;47.10;;;;;;5053040;28;20389;-84
2021/01/18 06:31:56;;;;;;;54.92;21.45;;;-8.80;47.10;;;;;;5052934;28;20021;-84
2021/01/18 06:34:28;;;;;;;58.47;21.00;;;-8.70;47.30;;;;;;5014029;28;20040;-82
2021/01/18 06:36:59;;;;;;;50.17;20.58;;;-8.60;47.20;;;;;;5052323;28;20025;-83
2021/01/18 06:39:27;;;;;;;61.53;21.92;;;-8.50;47.20;;;;;;5052495;28;20057;-83
2021/01/18 06:41:58;;;;;;;54.88;21.65;;;-8.50;47.20;;;;;;5052510;28;20021;-81
2021/01/18 06:44:35;;;;;;;52.35;20.25;;;-8.40;47.10;;;;;;5034029;28;20037;-84
2021/01/18 06:47:02;;;;;;;55.28;21.50;;;-8.40;46.80;;;;;;5052136;28;20031;-83
2021/01/18 06:49:29;;;;;;;53.17;21.05;;;-8.40;46.70;;;;;;5055357;28;20045;-83
2021/01/18 06:51:58;;;;;;;55.42;22.30;;;-8.40;46.90;;;;;;5057432;28;20373;-85
2021/01/18 06:54:31;;;;;;;54.80;22.17;;;-8.30;46.90;;;;;;5052634;28;20104;-81
2021/01/18 06:57:50;;;;;;;53.92;22.23;;;-8.20;46.90;;;;;;5055553;28;20025;-84
2021/01/18 07:00:18;;;;;;;60.97;21.88;;;-8.20;46.90;;;;;;4990368;28;20061;-82
2021/01/18 07:02:56;;;;;;;53.13;20.80;;;-8.00;46.80;;;;;;5042176;28;20030;-83
2021/01/18 07:05:35;;;;;;;57.95;22.02;;;-8.00;46.60;;;;;;5028845;28;20021;-82
2021/01/18 07:08:20;;;;;;;52.17;21.52;;;-7.90;46.70;;;;;;5056182;28;20143;-81
2021/01/18 07:10:50;;;;;;;56.78;23.08;;;-7.80;46.70;;;;;;5038152;28;20478;-81
2021/01/18 07:13:20;;;;;;;54.80;22.40;;;-7.60;46.60;;;;;;5056268;28;20036;-82
2021/01/18 07:15:49;;;;;;;56.00;22.15;;;-7.50;46.40;;;;;;5057019;28;20031;-82
2021/01/18 07:18:16;;;;;;;60.80;23.23;;;-7.40;46.30;;;;;;5058558;28;20037;-82
2021/01/18 07:20:46;;;;;;;59.17;23.98;;;-7.30;46.30;;;;;;5057025;28;20021;-82
2021/01/18 07:23:29;;;;;;;56.08;22.08;;;-7.10;46.30;;;;;;5057036;28;20463;-82
2021/01/18 07:26:28;;;;;;;59.80;23.35;;;-6.90;46.20;;;;;;5056401;28;20106;-81
2021/01/18 07:29:04;;;;;;;70.85;25.38;;;-6.70;45.90;;;;;;5054076;28;20045;-82
2021/01/18 07:32:07;;;;;;;56.20;21.38;;;-6.60;45.60;;;;;;5055522;28;20044;-82
2021/01/18 07:34:36;;;;;;;55.97;21.77;;;-6.50;45.30;;;;;;5056256;28;20363;-83
2021/01/18 07:37:07;;;;;;;56.20;21.48;;;-6.40;45.20;;;;;;5060344;28;20032;-82
2021/01/18 07:39:38;;;;;;;47.90;20.75;;;-6.30;45.10;;;;;;5059846;28;20033;-84
2021/01/18 07:42:25;;;;;;;49.05;21.63;;;-6.20;44.90;;;;;;5058934;28;20416;-85
2021/01/18 07:45:12;;;;;;;44.58;19.23;;;-6.20;44.80;;;;;;5059243;28;20017;-83
2021/01/18 07:47:55;;;;;;;55.63;22.80;;;-6.10;44.60;;;;;;5055911;28;20048;-80
2021/01/18 07:50:38;;;;;;;55.55;22.40;;;-6.00;44.40;;;;;;5055653;28;20037;-79
2021/01/18 07:53:34;;;;;;;49.47;20.90;;;-5.80;44.60;;;;;;5055717;28;20367;-82
2021/01/18 07:56:04;;;;;;;49.60;21.17;;;-5.70;44.40;;;;;;5045576;28;20093;-80
2021/01/18 07:58:31;;;;;;;52.30;21.55;;;-5.40;44.50;;;;;;5065161;28;20558;-84
2021/01/18 08:01:07;;;;;;;55.10;21.42;;;-5.20;44.30;;;;;;5083899;28;20063;-83
2021/01/18 08:03:33;;;;;;;56.85;21.80;;;-4.80;44.30;;;;;;5085476;28;20099;-83
2021/01/18 08:06:12;;;;;;;53.80;22.35;;;-4.40;44.40;;;;;;5084358;28;20091;-83
2021/01/18 08:08:39;;;;;;;54.65;23.08;;;-3.90;44.10;;;;;;5084027;28;20215;-82
2021/01/18 08:11:19;;;;;;;53.95;22.52;;;-3.40;44.30;;;;;;5083761;28;20370;-81
2021/01/18 08:13:59;;;;;;;50.45;23.30;;;-2.70;44.30;;;;;;5084898;28;20051;-82
2021/01/18 08:16:37;;;;;;;39.33;18.08;;;-1.90;43.40;;;;;;5084841;28;20032;-83
2021/01/18 08:19:26;;;;;;;36.25;17.05;;;-1.20;42.90;;;;;;5084121;28;20023;-83
2021/01/18 08:22:05;;;;;;;34.67;17.92;;;-0.50;42.00;;;;;;5083231;28;20104;-84
2021/01/18 08:24:30;;;;;;;47.97;21.52;;;0.30;41.70;;;;;;5082298;28;20031;-85
2021/01/18 08:26:56;;;;;;;43.92;21.05;;;1.00;41.60;;;;;;5088759;28;20016;-85
2021/01/18 08:29:41;;;;;;;44.40;20.52;;;1.70;40.60;;;;;;5095669;28;20036;-86
2021/01/18 08:32:34;;;;;;;48.92;22.80;;;2.30;39.00;;;;;;5095838;28;20487;-84
2021/01/18 08:35:07;;;;;;;43.22;20.45;;;2.90;38.10;;;;;;5094013;28;20035;-83
2021/01/18 08:37:35;;;;;;;50.13;22.35;;;3.40;38.00;;;;;;5094356;28;20016;-81
2021/01/18 08:40:04;;;;;;;44.03;21.60;;;3.90;37.40;;;;;;5094638;28;20020;-82
2021/01/18 08:42:34;;;;;;;44.55;20.65;;;4.30;36.90;;;;;;5094571;28;20502;-81
2021/01/18 08:45:06;;;;;;;37.70;20.27;;;4.70;36.00;;;;;;5093293;28;20477;-80
2021/01/18 08:48:02;;;;;;;36.45;20.02;;;5.00;35.00;;;;;;5094914;28;20059;-84
2021/01/18 08:50:52;;;;;;;36.85;19.65;;;5.40;34.00;;;;;;5078490;28;20129;-86
2021/01/18 08:53:32;;;;;;;39.25;20.10;;;5.90;33.50;;;;;;5094660;28;20123;-83
2021/01/18 08:56:27;;;;;;;36.58;20.27;;;6.20;33.50;;;;;;5095189;28;20409;-85
2021/01/18 08:58:54;;;;;;;37.15;20.05;;;6.50;32.70;;;;;;5093815;28;20093;-85
2021/01/18 09:01:27;;;;;;;31.48;17.38;;;6.90;33.00;;;;;;5093992;28;20039;-87
2021/01/18 09:04:06;;;;;;;35.00;18.95;;;7.20;32.60;;;;;;5076066;28;20103;-85
2021/01/18 09:06:33;;;;;;;33.33;18.58;;;7.50;31.10;;;;;;5094366;28;20109;-85
2021/01/18 09:09:07;;;;;;;34.63;18.08;;;7.80;31.20;;;;;;5094209;28;20028;-84
2021/01/18 09:11:39;;;;;;;28.45;16.88;;;8.10;30.20;;;;;;5093931;28;20103;-88
2021/01/18 09:14:05;;;;;;;38.58;19.40;;;8.30;30.00;;;;;;5094681;28;20077;-84
2021/01/18 09:16:32;;;;;;;31.00;17.98;;;8.50;29.90;;;;;;5095878;28;20024;-88
2021/01/18 09:19:06;;;;;;;35.00;18.95;;;8.70;29.60;;;;;;5095620;28;20074;-86
2021/01/18 09:21:33;;;;;;;31.40;17.80;;;8.80;28.80;;;;;;5096798;28;20065;-86
2021/01/18 09:24:05;;;;;;;32.83;19.05;;;9.00;29.20;;;;;;5094689;28;20096;-85
2021/01/18 09:26:32;;;;;;;33.63;19.85;;;9.10;28.70;;;;;;5094377;28;20076;-86
2021/01/18 09:28:58;;;;;;;39.63;22.33;;;9.30;28.40;;;;;;5094411;28;20028;-86
2021/01/18 09:31:24;;;;;;;42.15;22.77;;;9.40;28.20;;;;;;5093996;28;20480;-85
2021/01/18 09:33:52;;;;;;;33.75;20.65;;;9.70;28.20;;;;;;5094028;28;20135;-85
2021/01/18 09:36:20;;;;;;;33.38;20.38;;;9.90;28.00;;;;;;5094329;28;20157;-85
2021/01/18 09:38:47;;;;;;;38.53;21.58;;;10.20;27.60;;;;;;5076135;28;20024;-87
2021/01/18 09:41:14;;;;;;;34.00;20.52;;;10.40;27.40;;;;;;5076396;28;20048;-85
2021/01/18 09:43:43;;;;;;;44.88;24.08;;;10.50;27.20;;;;;;5094510;28;20354;-85
2021/01/18 09:46:15;;;;;;;39.63;22.95;;;10.60;26.90;;;;;;5094093;28;20016;-85
2021/01/18 09:48:48;;;;;;;42.78;25.55;;;10.60;26.60;;;;;;5094263;28;20039;-85
2021/01/18 09:51:16;;;;;;;49.90;26.33;;;10.50;26.60;;;;;;5090388;28;20031;-84
2021/01/18 09:53:43;;;;;;;42.70;24.00;;;10.10;26.40;;;;;;5088245;28;20023;-84
2021/01/18 09:56:30;;;;;;;36.28;21.58;;;10.10;26.60;;;;;;5032355;28;20073;-83
2021/01/18 09:58:58;;;;;;;32.67;19.35;;;10.30;26.50;;;;;;5081925;28;20117;-84
2021/01/18 10:01:26;;;;;;;32.05;18.25;;;10.50;26.50;;;;;;5084965;28;20111;-83
2021/01/18 10:03:58;;;;;;;32.70;19.33;;;10.70;26.30;;;;;;5075086;28;20055;-84
2021/01/18 10:06:27;;;;;;;33.70;20.38;;;10.80;25.90;;;;;;5070762;28;20024;-81
2021/01/18 10:09:01;;;;;;;31.02;18.17;;;10.40;25.80;;;;;;5074081;28;20037;-82
2021/01/18 10:11:47;;;;;;;36.17;19.08;;;10.10;25.80;;;;;;5054549;28;20487;-82
2021/01/18 10:14:20;;;;;;;33.70;18.45;;;9.70;25.60;;;;;;5073126;28;20027;-82
2021/01/18 10:17:08;;;;;;;31.40;18.52;;;9.50;25.70;;;;;;5078400;28;20016;-85
2021/01/18 10:19:36;;;;;;;31.13;18.05;;;9.30;25.70;;;;;;5055377;28;20024;-84
2021/01/18 10:22:04;;;;;;;30.65;17.73;;;9.60;26.20;;;;;;5074229;28;20493;-86
2021/01/18 10:24:35;;;;;;;35.63;18.52;;;9.90;25.90;;;;;;5076935;28;20105;-83
2021/01/18 10:27:10;;;;;;;38.10;21.05;;;9.80;25.40;;;;;;5076727;28;20032;-84
2021/01/18 10:29:46;;;;;;;34.13;18.98;;;8.90;25.10;;;;;;5076502;28;20119;-87
2021/01/18 10:32:17;;;;;;;39.53;19.63;;;7.90;25.40;;;;;;5076506;28;20470;-83
2021/01/18 10:34:42;;;;;;;38.85;22.20;;;6.60;25.60;;;;;;5073671;28;20125;-82
2021/01/18 10:37:17;;;;;;;36.67;20.27;;;5.70;26.10;;;;;;5075993;28;20051;-85
2021/01/18 10:39:43;;;;;;;;;;;5.20;26.70;;;;;;5076765;28;20051;-84
2021/01/18 10:42:25;;;;;;;45.90;21.38;;;5.60;27.40;;;;;;5079822;28;19904;-88
2021/01/18 10:44:55;;;;;;;37.53;21.55;;;6.20;27.30;;;;;;5079460;28;20031;-84
2021/01/18 10:47:29;;;;;;;38.42;19.83;;;6.10;26.80;;;;;;5076140;28;20074;-86
2021/01/18 10:50:01;;;;;;;37.30;19.20;;;5.60;26.80;;;;;;5077626;28;20377;-85
2021/01/18 10:52:51;;;;;;;37.35;20.48;;;6.00;27.40;;;;;;5077478;28;20024;-84
2021/01/18 10:55:23;;;;;;;36.92;19.60;;;6.90;27.40;;;;;;5077966;28;20029;-84
2021/01/18 10:57:49;;;;;;;39.10;22.38;;;7.70;27.30;;;;;;5075036;28;20040;-85
2021/01/18 11:00:20;;;;;;;33.42;20.42;;;8.50;27.10;;;;;;5078671;28;20024;-85
2021/01/18 11:03:04;;;;;;;35.13;19.92;;;8.90;26.70;;;;;;5075974;28;20378;-85
2021/01/18 11:05:33;;;;;;;38.85;20.27;;;9.00;26.00;;;;;;5057270;28;20112;-85
2021/01/18 11:08:03;;;;;;;36.30;21.27;;;9.40;26.20;;;;;;5075311;28;20025;-86
2021/01/18 11:10:58;;;;;;;35.22;20.23;;;9.80;26.00;;;;;;5058438;28;20066;-86
2021/01/18 11:13:26;;;;;;;32.65;20.15;;;10.20;25.50;;;;;;5076205;28;20060;-84
2021/01/18 11:15:57;;;;;;;36.40;18.90;;;10.50;25.60;;;;;;5076328;28;20078;-86
2021/01/18 11:18:22;;;;;;;42.35;22.17;;;10.70;25.30;;;;;;5076129;28;20483;-85
2021/01/18 11:20:53;;;;;;;43.22;23.13;;;10.90;25.30;;;;;;5058590;28;20119;-84
2021/01/18 11:23:24;;;;;;;29.85;18.23;;;11.30;25.10;;;;;;5076400;28;20050;-84
2021/01/18 11:25:49;;;;;;;33.63;18.73;;;11.80;25.20;;;;;;5076204;28;20549;-86
2021/01/18 11:28:17;;;;;;;29.10;17.63;;;12.10;25.00;;;;;;5077292;28;20040;-85
2021/01/18 11:30:44;;;;;;;31.20;19.75;;;12.30;24.80;;;;;;5077833;28;20350;-83
2021/01/18 11:33:11;;;;;;;28.88;18.42;;;12.70;24.60;;;;;;5075772;28;20052;-85
2021/01/18 11:35:41;;;;;;;26.75;17.42;;;13.00;24.30;;;;;;5076487;28;20066;-85
2021/01/18 11:38:13;;;;;;;33.78;19.00;;;13.10;24.10;;;;;;5075719;28;20481;-85
2021/01/18 11:40:40;;;;;;;28.30;17.33;;;13.20;23.90;;;;;;5057923;28;20127;-87
2021/01/18 11:43:11;;;;;;;28.45;16.73;;;13.30;24.00;;;;;;5075204;28;20032;-84
2021/01/18 11:45:37;;;;;;;26.15;17.15;;;13.40;23.70;;;;;;5057422;28;20381;-84
2021/01/18 11:48:05;;;;;;;27.40;17.25;;;13.40;23.70;;;;;;5077757;28;20025;-83
2021/01/18 11:50:32;;;;;;;29.92;18.42;;;13.30;23.60;;;;;;5082510;28;20460;-85
2021/01/18 11:52:59;;;;;;;27.27;17.67;;;13.10;23.60;;;;;;5075861;28;20466;-84
2021/01/18 11:55:25;;;;;;;28.25;18.15;;;13.20;23.70;;;;;;5075192;28;20071;-85
2021/01/18 11:57:55;;;;;;;31.35;19.40;;;13.20;23.50;;;;;;5075631;28;20086;-86
2021/01/18 12:00:33;;;;;;;33.25;19.42;;;12.80;23.20;;;;;;5075825;28;20497;-86
2021/01/18 12:03:00;;;;;;;35.50;21.05;;;12.00;23.00;;;;;;5080841;28;20029;-85
2021/01/18 12:05:30;;;;;;;31.70;18.63;;;11.00;23.40;;;;;;5084846;28;20124;-85
2021/01/18 12:08:06;;;;;;;41.13;22.67;;;10.40;23.70;;;;;;5088022;28;20118;-84
2021/01/18 12:10:34;;;;;;;37.38;20.92;;;9.80;23.60;;;;;;5066907;28;20023;-86
2021/01/18 12:13:03;;;;;;;34.35;19.50;;;8.90;23.80;;;;;;5082285;28;20501;-86
2021/01/18 12:15:31;;;;;;;30.85;17.77;;;7.80;24.00;;;;;;5066767;28;20121;-86
2021/01/18 12:17:56;;;;;;;31.98;16.75;;;6.90;24.40;;;;;;5086410;28;20052;-84
2021/01/18 12:20:22;;;;;;;31.20;16.88;;;6.80;25.00;;;;;;5067596;28;20024;-85
2021/01/18 12:22:54;;;;;;;33.63;16.98;;;7.20;25.20;;;;;;5065823;28;20025;-86
2021/01/18 12:25:21;;;;;;;32.38;17.08;;;7.60;25.00;;;;;;5084718;28;20099;-86
2021/01/18 12:27:52;;;;;;;33.33;18.92;;;8.00;25.10;;;;;;5086375;28;20024;-85
2021/01/18 12:30:18;;;;;;;34.28;18.70;;;8.30;24.90;;;;;;5061507;28;20025;-85
2021/01/18 12:32:44;;;;;;;37.92;19.88;;;8.60;24.90;;;;;;5064823;28;20024;-86
2021/01/18 12:35:11;;;;;;;34.33;17.23;;;8.90;24.80;;;;;;5075836;28;20025;-85
2021/01/18 12:37:36;;;;;;;33.42;17.65;;;9.00;24.70;;;;;;5075075;28;20020;-86
2021/01/18 12:40:13;;;;;;;32.15;17.92;;;8.70;24.40;;;;;;5057801;28;20055;-87
2021/01/18 12:42:44;;;;;;;32.70;17.13;;;8.00;24.30;;;;;;5074852;28;20032;-86
2021/01/18 12:45:20;;;;;;;36.72;19.17;;;7.30;24.50;;;;;;5074596;28;20370;-85
2021/01/18 12:47:46;;;;;;;30.55;15.85;;;6.30;24.60;;;;;;5086482;28;20017;-85
2021/01/18 12:50:17;;;;;;;36.47;18.98;;;5.40;24.90;;;;;;5077176;28;20031;-87
2021/01/18 12:52:46;;;;;;;36.65;18.10;;;4.40;25.20;;;;;;5075418;28;20029;-87
2021/01/18 12:55:12;;;;;;;37.58;18.10;;;3.60;25.60;;;;;;5076021;28;20024;-85